Time;durP1;ratioP1;P1;durP2;ratioP2;P2;SDS_P1;SDS_P2;PMS_P1;PMS_P2;Temp;Humidity;BMP_temperature;BMP_pressure;BME280_temperature;BME280_humidity;BME280_pressure;Samples;Min_cycle;Max_cycle;Signal;HPM_P1;HPM_P2
2024/01/15 00:02:03;;;;;;;13.93;6.60;;;;;;;-3.65;100.00;96229.59;5027169;28;20068;-64
2024/01/15 00:04:30;;;;;;;16.80;5.68;;;;;;;-3.74;100.00;96233.38;5035776;28;20728;-64
2024/01/15 00:06:56;;;;;;;18.08;6.40;;;;;;;-3.79;100.00;96229.47;5031683;28;20434;-64
2024/01/15 00:09:23;;;;;;;20.15;6.20;;;;;;;-3.80;100.00;96227.03;5036589;28;20046;-64
2024/01/15 00:11:50;;;;;;;17.50;5.85;;;;;;;-3.88;100.00;96227.19;5035764;28;20072;-64
2024/01/15 00:14:19;;;;;;;12.25;5.78;;;;;;;-3.93;100.00;96225.09;5031823;28;20519;-64
2024/01/15 00:16:47;;;;;;;18.70;5.47;;;;;;;-3.97;100.00;96223.81;5027116;28;20042;-64
2024/01/15 00:19:13;;;;;;;15.80;5.75;;;;;;;-3.98;100.00;96222.19;5033755;28;20045;-64
2024/01/15 00:21:40;;;;;;;19.23;5.85;;;;;;;-3.97;100.00;96221.19;5036503;28;20523;-64
2024/01/15 00:24:06;;;;;;;16.98;6.57;;;;;;;-3.84;100.00;96223.94;5030868;28;20589;-64
2024/01/15 00:26:33;;;;;;;15.18;5.65;;;;;;;-3.77;100.00;96220.56;5036532;28;20057;-64
2024/01/15 00:28:59;;;;;;;14.75;5.32;;;;;;;-3.71;100.00;96225.09;5031202;28;20119;-64
2024/01/15 00:31:26;;;;;;;20.08;5.43;;;;;;;-3.73;100.00;96212.03;5025231;28;20120;-64
2024/01/15 00:33:53;;;;;;;14.68;6.15;;;;;;;-3.68;100.00;96219.41;5032815;28;20122;-64
2024/01/15 00:36:19;;;;;;;11.40;4.97;;;;;;;-3.69;100.00;96215.94;5029047;28;20044;-64
2024/01/15 00:38:47;;;;;;;15.70;6.47;;;;;;;-3.60;100.00;96210.53;5032147;28;20102;-64
2024/01/15 00:41:14;;;;;;;16.65;5.38;;;;;;;-3.72;100.00;96208.38;5034225;28;20041;-64
2024/01/15 00:43:41;;;;;;;17.40;6.22;;;;;;;-3.68;100.00;96208.84;5030612;28;20060;-64
2024/01/15 00:46:08;;;;;;;11.63;4.63;;;;;;;-3.58;100.00;96205.88;5029884;28;20125;-64
2024/01/15 00:48:34;;;;;;;17.52;5.32;;;;;;;-3.64;100.00;96203.97;5026395;28;20091;-65
2024/01/15 00:51:01;;;;;;;14.63;6.50;;;;;;;-3.63;100.00;96209.06;5027929;28;20091;-64
2024/01/15 00:53:28;;;;;;;13.45;6.05;;;;;;;-3.58;100.00;96217.25;5037751;28;20048;-65
2024/01/15 00:55:54;;;;;;;16.95;6.32;;;;;;;-3.45;100.00;96216.56;5024877;28;20137;-64
2024/01/15 00:58:21;;;;;;;14.52;6.40;;;;;;;-3.46;100.00;96211.47;5027766;28;20521;-64
2024/01/15 01:00:47;;;;;;;18.30;5.85;;;;;;;-3.31;100.00;96211.38;5035551;28;20046;-64
2024/01/15 01:03:14;;;;;;;15.57;5.65;;;;;;;-3.17;100.00;96209.63;5036114;28;20118;-64
2024/01/15 01:05:41;;;;;;;14.98;5.80;;;;;;;-3.19;100.00;96209.81;5038273;28;20106;-64
2024/01/15 01:08:08;;;;;;;13.38;6.07;;;;;;;-3.10;100.00;96209.69;5038843;28;20559;-64
2024/01/15 01:10:35;;;;;;;16.45;5.93;;;;;;;-3.08;100.00;96208.47;5032769;28;20060;-64
2024/01/15 01:13:01;;;;;;;16.30;6.72;;;;;;;-2.99;100.00;96213.63;5041737;28;20045;-65
2024/01/15 01:15:28;;;;;;;15.98;6.35;;;;;;;-2.99;100.00;96211.78;5044229;28;20052;-64
2024/01/15 01:17:55;;;;;;;14.90;5.43;;;;;;;-3.04;100.00;96204.44;5036036;28;20049;-65
2024/01/15 01:20:21;;;;;;;20.42;6.40;;;;;;;-2.84;100.00;96201.06;5035261;28;20071;-64
2024/01/15 01:22:48;;;;;;;13.80;5.03;;;;;;;-2.85;100.00;96202.06;5028492;28;20041;-65
2024/01/15 01:25:15;;;;;;;16.63;6.38;;;;;;;-2.87;100.00;96201.47;5036068;28;20048;-64
2024/01/15 01:27:41;;;;;;;15.60;5.72;;;;;;;-2.94;100.00;96196.13;5035591;28;20038;-64
2024/01/15 01:30:08;;;;;;;15.57;5.68;;;;;;;-3.06;100.00;96193.19;5033542;28;20047;-64
2024/01/15 01:32:35;;;;;;;16.83;5.53;;;;;;;-3.06;100.00;96195.03;5046516;28;20041;-64
2024/01/15 01:35:02;;;;;;;16.73;5.78;;;;;;;-3.09;100.00;96198.91;5042805;28;20037;-64
2024/01/15 01:37:28;;;;;;;11.50;5.03;;;;;;;-3.08;100.00;96199.69;5032672;28;20060;-64
2024/01/15 01:39:55;;;;;;;13.98;5.22;;;;;;;-3.16;100.00;96201.47;5039762;28;20051;-64
2024/01/15 01:42:21;;;;;;;15.50;5.93;;;;;;;-3.12;100.00;96191.34;5034757;28;20056;-64
2024/01/15 01:44:48;;;;;;;13.68;5.22;;;;;;;-3.13;100.00;96195.00;5041946;28;20059;-64
2024/01/15 01:47:15;;;;;;;14.88;5.35;;;;;;;-3.12;100.00;96191.34;5043128;28;20033;-64
2024/01/15 01:49:42;;;;;;;16.42;5.25;;;;;;;-3.05;100.00;96200.16;5036861;28;20029;-64
2024/01/15 01:52:09;;;;;;;15.57;6.60;;;;;;;-3.01;100.00;96192.63;5033126;28;20045;-64
2024/01/15 01:54:37;;;;;;;14.40;5.00;;;;;;;-3.10;100.00;96196.44;5032311;28;20037;-64
2024/01/15 01:57:05;;;;;;;15.38;5.63;;;;;;;-3.05;100.00;96192.19;5038034;28;20033;-64
2024/01/15 01:59:34;;;;;;;14.57;5.50;;;;;;;-3.15;100.00;96184.59;5034854;28;20447;-64
2024/01/15 02:02:03;;;;;;;14.75;6.05;;;;;;;-3.12;100.00;96186.03;5030802;28;20052;-64
2024/01/15 02:04:31;;;;;;;14.35;5.60;;;;;;;-3.05;100.00;96186.91;5042478;28;20052;-64
2024/01/15 02:07:01;;;;;;;15.50;5.82;;;;;;;-2.99;100.00;96192.44;5040916;28;20033;-64
2024/01/15 02:09:28;;;;;;;11.35;4.15;;;;;;;-3.10;100.00;96202.53;5042107;28;20045;-64
2024/01/15 02:11:55;;;;;;;11.82;4.38;;;;;;;-3.11;100.00;96189.50;5035285;28;20040;-64
2024/01/15 02:14:21;;;;;;;13.68;4.63;;;;;;;-3.10;100.00;96183.19;5032059;28;20033;-64
2024/01/15 02:16:48;;;;;;;15.20;5.88;;;;;;;-3.10;100.00;96175.25;5038316;28;20049;-64
2024/01/15 02:19:16;;;;;;;11.18;4.90;;;;;;;-3.11;100.00;96177.06;5037957;28;20649;-64
2024/01/15 02:21:43;;;;;;;13.52;5.45;;;;;;;-3.13;100.00;96181.75;5037323;28;20038;-64
2024/01/15 02:24:11;;;;;;;14.05;4.75;;;;;;;-3.13;100.00;96179.13;5033262;28;20560;-64
2024/01/15 02:26:38;;;;;;;13.15;5.53;;;;;;;-3.23;100.00;96178.63;5027865;28;20076;-64
2024/01/15 02:29:08;;;;;;;14.85;5.93;;;;;;;-3.02;100.00;96181.19;5035054;28;20052;-64
2024/01/15 02:31:36;;;;;;;12.93;4.80;;;;;;;-3.06;100.00;96177.31;5032971;28;20065;-64
2024/01/15 02:34:03;;;;;;;16.65;6.05;;;;;;;-3.08;100.00;96179.34;5026840;28;20057;-64
2024/01/15 02:36:30;;;;;;;13.73;5.32;;;;;;;-3.04;100.00;96177.13;5029660;28;20051;-64
2024/01/15 02:38:57;;;;;;;15.75;5.57;;;;;;;-3.00;100.00;96173.06;5041383;28;20040;-64
2024/01/15 02:41:23;;;;;;;10.98;4.55;;;;;;;-2.80;100.00;96175.81;5041514;28;20045;-63
2024/01/15 02:43:50;;;;;;;11.98;4.35;;;;;;;-2.88;100.00;96173.31;5041733;28;20041;-64
2024/01/15 02:46:16;;;;;;;12.32;5.45;;;;;;;-2.93;100.00;96167.78;5042883;28;20064;-64
2024/01/15 02:48:43;;;;;;;13.18;6.45;;;;;;;-2.95;100.00;96169.84;5033601;28;20047;-64
2024/01/15 02:51:10;;;;;;;13.18;5.07;;;;;;;-3.01;100.00;96166.97;5037094;28;20570;-64
2024/01/15 02:53:37;;;;;;;12.73;5.18;;;;;;;-3.01;100.00;96168.78;5041464;28;20041;-64
2024/01/15 02:56:03;;;;;;;11.82;4.55;;;;;;;-2.83;100.00;96170.94;5033852;28;20037;-64
2024/01/15 02:58:30;;;;;;;14.05;5.25;;;;;;;-2.76;100.00;96166.44;5029486;28;20053;-64
2024/01/15 03:00:57;;;;;;;14.50;4.53;;;;;;;-2.70;100.00;96169.34;5029587;28;20080;-64
2024/01/15 03:03:23;;;;;;;18.38;5.22;;;;;;;-2.77;100.00;96169.28;5036995;28;20056;-64
2024/01/15 03:05:50;;;;;;;14.80;5.43;;;;;;;-2.65;100.00;96177.53;5034184;28;20113;-65
2024/01/15 03:08:17;;;;;;;9.82;4.40;;;;;;;-2.55;100.00;96177.97;5042285;28;20047;-64
2024/01/15 03:10:43;;;;;;;14.07;4.82;;;;;;;-2.53;100.00;96175.13;5043369;28;20501;-64
2024/01/15 03:13:10;;;;;;;12.15;4.53;;;;;;;-2.46;100.00;96172.47;5034426;28;20041;-64
2024/01/15 03:15:36;;;;;;;13.55;4.97;;;;;;;-2.38;100.00;96167.84;5031225;28;20479;-64
2024/01/15 03:18:03;;;;;;;13.45;4.95;;;;;;;-2.48;100.00;96172.69;5040499;28;20117;-64
2024/01/15 03:20:30;;;;;;;9.15;4.40;;;;;;;-2.56;100.00;96170.19;5039174;28;20037;-64
2024/01/15 03:22:57;;;;;;;10.90;4.32;;;;;;;-2.53;100.00;96175.13;5030793;28;20106;-64
2024/01/15 03:25:23;;;;;;;12.27;5.28;;;;;;;-2.51;100.00;96171.25;5042339;28;20041;-64
2024/01/15 03:27:50;;;;;;;15.45;4.30;;;;;;;-2.49;100.00;96171.06;5037155;28;20037;-65
2024/01/15 03:30:16;;;;;;;14.73;4.95;;;;;;;-2.40;100.00;96163.75;5031777;28;20048;-64
2024/01/15 03:32:43;;;;;;;10.90;3.88;;;;;;;-2.34;100.00;96168.25;5042957;28;20436;-64
2024/01/15 03:35:09;;;;;;;12.25;3.85;;;;;;;-2.34;100.00;96173.56;5028785;28;20053;-64
2024/01/15 03:37:36;;;;;;;10.15;4.25;;;;;;;-2.30;100.00;96171.31;5035489;28;20103;-64
2024/01/15 03:40:03;;;;;;;7.88;3.97;;;;;;;-2.31;100.00;96167.03;5036066;28;20055;-64
2024/01/15 03:42:30;;;;;;;9.70;4.32;;;;;;;-2.20;100.00;96177.06;5037885;28;20126;-64
2024/01/15 03:44:56;;;;;;;8.80;3.67;;;;;;;-2.25;100.00;96171.53;5041424;28;20102;-64
2024/01/15 03:47:23;;;;;;;12.43;4.55;;;;;;;-2.24;100.00;96160.72;5030271;28;20556;-64
2024/01/15 03:49:49;;;;;;;11.25;4.20;;;;;;;-2.23;100.00;96164.19;5035504;28;20484;-64
2024/01/15 03:52:16;;;;;;;10.45;3.88;;;;;;;-2.33;100.00;96169.06;5036910;28;20055;-64
2024/01/15 03:54:42;;;;;;;8.70;4.07;;;;;;;-2.22;100.00;96163.16;5032428;28;20488;-65
2024/01/15 03:57:09;;;;;;;7.80;3.42;;;;;;;-2.08;100.00;96166.69;5038752;28;20037;-64
2024/01/15 03:59:35;;;;;;;9.45;4.28;;;;;;;-2.11;100.00;96145.84;5031797;28;20072;-64
2024/01/15 04:02:03;;;;;;;10.77;4.28;;;;;;;-2.09;100.00;96157.09;5030859;28;20605;-64
2024/01/15 04:04:29;;;;;;;9.77;3.75;;;;;;;-2.11;100.00;96149.34;5038427;28;20102;-64
2024/01/15 04:06:56;;;;;;;11.40;4.63;;;;;;;-2.09;100.00;96154.44;5027796;28;20412;-63
2024/01/15 04:09:23;;;;;;;9.98;3.45;;;;;;;-2.15;100.00;96139.31;5046754;28;20461;-62
2024/01/15 04:11:49;;;;;;;7.72;3.65;;;;;;;-2.09;100.00;96131.38;5037042;28;20133;-62
2024/01/15 04:14:16;;;;;;;7.57;3.80;;;;;;;-2.02;100.00;96133.22;5036550;28;20048;-62
2024/01/15 04:16:42;;;;;;;8.25;3.50;;;;;;;-2.15;100.00;96132.19;5035285;28;20037;-63
2024/01/15 04:19:09;;;;;;;13.20;5.00;;;;;;;-2.16;100.00;96140.34;5040382;28;20095;-63
2024/01/15 04:21:35;;;;;;;10.98;4.05;;;;;;;-2.19;100.00;96138.91;5029985;28;20460;-63
2024/01/15 04:24:02;;;;;;;9.02;4.25;;;;;;;-2.09;100.00;96135.88;5026702;28;20806;-62
2024/01/15 04:26:29;;;;;;;10.10;3.47;;;;;;;-2.14;100.00;96128.50;5040708;28;20041;-63
2024/01/15 04:28:55;;;;;;;9.23;4.07;;;;;;;-2.20;100.00;96128.50;5029294;28;20382;-63
2024/01/15 04:31:26;;;;;;;7.47;3.20;;;;;;;-2.22;100.00;96124.22;5029159;28;20075;-63
2024/01/15 04:33:53;;;;;;;;;;;;;;;-2.29;100.00;96122.59;5032720;28;20571;-63
2024/01/15 04:36:20;;;;;;;8.77;3.67;;;;;;;-2.29;100.00;96127.88;5029450;28;20028;-63
2024/01/15 04:38:47;;;;;;;7.82;4.03;;;;;;;-2.19;100.00;96122.16;5031355;28;20051;-63
2024/01/15 04:41:15;;;;;;;7.70;3.67;;;;;;;-2.22;100.00;96112.78;5032701;28;20164;-63
2024/01/15 04:43:42;;;;;;;6.90;3.38;;;;;;;-2.26;100.00;96112.38;5026515;28;20047;-63
2024/01/15 04:46:09;;;;;;;10.07;4.32;;;;;;;-2.21;100.00;96109.13;5038294;28;21827;-62
2024/01/15 04:48:36;;;;;;;6.75;2.92;;;;;;;-2.13;100.00;96116.88;5025836;28;20537;-62
2024/01/15 04:51:09;;;;;;;7.18;3.38;;;;;;;-2.01;100.00;96118.94;5030280;28;20132;-63
2024/01/15 04:53:35;;;;;;;8.85;3.45;;;;;;;-2.06;100.00;96113.44;5026070;28;20052;-62
2024/01/15 04:56:02;;;;;;;10.15;3.40;;;;;;;-2.02;100.00;96123.44;5038223;28;20033;-63
2024/01/15 04:58:29;;;;;;;8.95;3.20;;;;;;;-1.84;100.00;96125.47;5036171;28;20034;-63
2024/01/15 05:00:56;;;;;;;7.32;3.15;;;;;;;-1.88;100.00;96115.50;5029364;28;20052;-63
2024/01/15 05:03:22;;;;;;;8.85;3.17;;;;;;;-1.94;100.00;96118.94;5028783;28;20041;-63
2024/01/15 05:05:49;;;;;;;8.25;3.28;;;;;;;-2.01;100.00;96118.94;5041743;28;20166;-66
2024/01/15 05:08:16;;;;;;;7.03;3.20;;;;;;;-2.04;100.00;96109.56;5030553;28;20598;-63
2024/01/15 05:10:43;;;;;;;9.77;3.30;;;;;;;-2.03;100.00;96105.88;5036884;28;20119;-63
2024/01/15 05:13:09;;;;;;;6.75;2.65;;;;;;;-2.16;100.00;96103.22;5024769;28;21455;-63
2024/01/15 05:15:36;;;;;;;6.53;2.88;;;;;;;-2.09;100.00;96104.03;5038254;28;20037;-63
2024/01/15 05:18:02;;;;;;;8.32;3.03;;;;;;;-1.98;100.00;96100.75;5030859;28;20045;-63
2024/01/15 05:20:29;;;;;;;6.78;3.28;;;;;;;-2.03;100.00;96087.31;5029127;28;20665;-64
2024/01/15 05:22:55;;;;;;;7.80;2.97;;;;;;;-2.00;100.00;96084.25;5031241;28;20071;-63
2024/01/15 05:25:22;;;;;;;7.55;3.17;;;;;;;-2.02;100.00;96085.47;5032031;28;20049;-63
2024/01/15 05:27:49;;;;;;;10.07;4.00;;;;;;;-2.11;100.00;96092.81;5035197;28;20051;-63
2024/01/15 05:30:16;;;;;;;8.13;3.00;;;;;;;-1.91;100.00;96089.34;5034890;28;20042;-63
2024/01/15 05:32:43;;;;;;;7.68;3.17;;;;;;;-1.93;100.00;96083.41;5027777;28;20121;-63
2024/01/15 05:35:10;;;;;;;7.57;3.80;;;;;;;-2.05;100.00;96088.53;5033866;28;20057;-63
2024/01/15 05:37:36;;;;;;;8.70;3.15;;;;;;;-2.16;100.00;96084.66;5029344;28;20709;-63
2024/01/15 05:40:04;;;;;;;7.82;2.90;;;;;;;-2.16;100.00;96087.28;5036098;28;20052;-63
2024/01/15 05:42:31;;;;;;;7.20;3.33;;;;;;;-2.18;100.00;96082.19;5031644;28;20124;-63
2024/01/15 05:44:59;;;;;;;5.90;2.70;;;;;;;-2.19;100.00;96087.69;5031357;28;20041;-63
2024/01/15 05:47:26;;;;;;;8.73;3.22;;;;;;;-2.08;100.00;96087.09;5025689;28;20041;-63
2024/01/15 05:49:52;;;;;;;7.75;3.75;;;;;;;-2.11;100.00;96085.69;5031812;28;20041;-64
2024/01/15 05:52:20;;;;;;;9.25;2.97;;;;;;;-2.15;100.00;96084.44;5032377;28;20120;-63
2024/01/15 05:54:47;;;;;;;7.95;3.33;;;;;;;-2.14;100.00;96082.63;5032841;28;20045;-63
2024/01/15 05:57:14;;;;;;;6.22;2.60;;;;;;;-1.98;100.00;96089.34;5039723;28;20164;-63
2024/01/15 05:59:40;;;;;;;7.72;3.22;;;;;;;-2.06;100.00;96090.38;5036314;28;20651;-63
2024/01/15 06:02:07;;;;;;;6.75;2.67;;;;;;;-2.11;100.00;96084.84;5032967;28;20424;-63
2024/01/15 06:04:33;;;;;;;8.68;3.08;;;;;;;-2.11;100.00;96071.59;5033625;28;20037;-63
2024/01/15 06:07:00;;;;;;;8.27;2.83;;;;;;;-2.05;100.00;96064.66;5038318;28;20041;-63
2024/01/15 06:09:28;;;;;;;6.30;2.65;;;;;;;-2.02;100.00;96059.78;5038118;28;20455;-63
2024/01/15 06:11:55;;;;;;;5.95;2.53;;;;;;;-1.97;100.00;96059.97;5037446;28;20127;-63
2024/01/15 06:14:21;;;;;;;9.50;3.30;;;;;;;-2.04;100.00;96055.66;5038441;28;20045;-63
2024/01/15 06:16:49;;;;;;;6.72;3.17;;;;;;;-2.07;100.00;96051.59;5037027;28;20064;-63
2024/01/15 06:19:15;;;;;;;9.38;3.28;;;;;;;-2.14;100.00;96054.25;5030834;28;20052;-63
2024/01/15 06:21:42;;;;;;;7.13;2.70;;;;;;;-2.19;100.00;96048.75;5032468;28;20120;-63
2024/01/15 06:24:10;;;;;;;6.53;3.10;;;;;;;-2.25;100.00;96054.88;5034435;28;20048;-62
2024/01/15 06:26:36;;;;;;;8.13;3.40;;;;;;;-2.21;100.00;96048.16;5035233;28;20045;-62
2024/01/15 06:29:03;;;;;;;8.35;3.30;;;;;;;-2.21;100.00;96048.16;5026516;28;20045;-62
2024/01/15 06:31:30;;;;;;;7.40;3.10;;;;;;;-2.26;100.00;96046.09;5034686;28;20052;-61
2024/01/15 06:33:56;;;;;;;6.60;3.00;;;;;;;-2.24;100.00;96053.84;5036441;28;20386;-62
2024/01/15 06:36:23;;;;;;;6.47;2.53;;;;;;;-2.14;100.00;96058.75;5041368;28;20055;-62
2024/01/15 06:38:50;;;;;;;6.38;2.50;;;;;;;-1.93;100.00;96062.19;5035925;28;20040;-62
2024/01/15 06:41:16;;;;;;;9.63;2.55;;;;;;;-1.93;100.00;96055.06;5039914;28;20125;-62
2024/01/15 06:43:43;;;;;;;4.63;2.33;;;;;;;-1.93;100.00;96055.06;5034422;28;20509;-62
2024/01/15 06:46:09;;;;;;;5.47;2.50;;;;;;;-2.00;100.00;96063.03;5032241;28;20041;-62
2024/01/15 06:48:36;;;;;;;5.65;2.50;;;;;;;-2.05;100.00;96060.19;5034600;28;20029;-62
2024/01/15 06:51:03;;;;;;;5.03;2.47;;;;;;;-2.11;100.00;96055.66;5029748;28;20072;-62
2024/01/15 06:53:29;;;;;;;10.20;3.05;;;;;;;-2.13;100.00;96047.13;5029382;28;20043;-62
2024/01/15 06:55:56;;;;;;;7.22;2.78;;;;;;;-2.20;100.00;96052.41;5037284;28;20049;-62
2024/01/15 06:58:22;;;;;;;6.03;2.50;;;;;;;-2.16;100.00;96058.94;5031983;28;20046;-62
2024/01/15 07:00:49;;;;;;;6.43;2.25;;;;;;;-2.18;100.00;96062.81;5026360;28;20050;-61
2024/01/15 07:03:16;;;;;;;5.45;2.60;;;;;;;-2.20;100.00;96063.03;5033294;28;20038;-62
2024/01/15 07:05:43;;;;;;;5.72;2.72;;;;;;;-2.19;100.00;96063.81;5031835;28;20076;-62
2024/01/15 07:08:09;;;;;;;6.05;2.63;;;;;;;-2.24;100.00;96067.91;5036188;28;20037;-62
2024/01/15 07:10:36;;;;;;;5.03;2.63;;;;;;;-2.15;100.00;96065.06;5031229;28;20049;-62
2024/01/15 07:13:05;;;;;;;10.55;3.95;;;;;;;-2.23;100.00;96066.06;5037060;28;20049;-62
2024/01/15 07:15:31;;;;;;;8.90;3.78;;;;;;;-2.21;100.00;96069.34;5033189;28;20046;-62
2024/01/15 07:17:58;;;;;;;7.20;3.17;;;;;;;-2.23;100.00;96063.44;5035920;28;20054;-62
2024/01/15 07:20:24;;;;;;;9.43;4.15;;;;;;;-2.22;100.00;96067.69;5038919;28;20055;-61
2024/01/15 07:22:51;;;;;;;7.80;3.67;;;;;;;-2.14;100.00;96062.19;5033285;28;20120;-62
2024/01/15 07:25:18;;;;;;;9.15;4.38;;;;;;;-2.12;100.00;96067.31;5035429;28;20079;-62
2024/01/15 07:27:44;;;;;;;10.18;4.40;;;;;;;-2.18;100.00;96076.88;5034888;28;20044;-62
2024/01/15 07:30:12;;;;;;;9.18;3.95;;;;;;;-2.21;100.00;96072.00;5035577;28;20098;-62
2024/01/15 07:32:39;;;;;;;10.13;4.22;;;;;;;-2.15;100.00;96068.53;5034000;28;20041;-62
2024/01/15 07:35:06;;;;;;;9.00;3.30;;;;;;;-2.03;100.00;96059.97;5038371;28;20048;-62
2024/01/15 07:37:33;;;;;;;8.43;3.78;;;;;;;-2.13;100.00;96058.53;5032451;28;20041;-62
2024/01/15 07:40:00;;;;;;;10.38;4.53;;;;;;;-2.02;100.00;96065.09;5036036;28;20411;-62
2024/01/15 07:42:27;;;;;;;9.40;3.88;;;;;;;-1.91;100.00;96068.13;5032050;28;20060;-62
2024/01/15 07:44:53;;;;;;;9.05;4.15;;;;;;;-1.99;100.00;96055.91;5026110;28;20563;-62
2024/01/15 07:47:20;;;;;;;9.00;4.20;;;;;;;-2.02;100.00;96057.13;5043473;28;20041;-62
2024/01/15 07:49:46;;;;;;;10.27;4.88;;;;;;;-1.99;100.00;96062.00;5039993;28;20131;-62
2024/01/15 07:52:13;;;;;;;8.48;4.60;;;;;;;-2.03;100.00;96052.81;5028529;28;20049;-62
2024/01/15 07:54:40;;;;;;;9.10;3.40;;;;;;;-1.97;100.00;96051.19;5038901;28;20045;-62
2024/01/15 07:57:07;;;;;;;8.52;3.70;;;;;;;-2.04;100.00;96048.53;5030109;28;20071;-62
2024/01/15 07:59:34;;;;;;;10.02;3.95;;;;;;;-1.94;100.00;96060.56;5040209;28;20086;-62
2024/01/15 08:02:01;;;;;;;10.45;4.00;;;;;;;-1.91;100.00;96058.34;5035903;28;20115;-62
2024/01/15 08:04:28;;;;;;;10.50;4.38;;;;;;;-1.71;100.00;96063.63;5041253;28;20048;-62
2024/01/15 08:06:55;;;;;;;8.10;3.78;;;;;;;-1.62;100.00;96068.72;5032336;28;20158;-62
2024/01/15 08:09:21;;;;;;;7.80;3.40;;;;;;;-1.55;100.00;96079.31;5044191;28;21281;-62
2024/01/15 08:11:49;;;;;;;10.00;3.47;;;;;;;-1.47;100.00;96085.22;5041886;28;20415;-62
2024/01/15 08:14:16;;;;;;;6.60;3.30;;;;;;;-1.45;100.00;96075.22;5033742;28;20041;-62
2024/01/15 08:16:43;;;;;;;10.27;3.45;;;;;;;-1.50;100.00;96067.06;5036644;28;20052;-62
2024/01/15 08:19:10;;;;;;;6.40;2.85;;;;;;;-1.49;100.00;96074.00;5039431;28;20123;-61
2024/01/15 08:21:37;;;;;;;10.13;3.67;;;;;;;-1.41;100.00;96067.66;5035112;28;20045;-62
2024/01/15 08:24:03;;;;;;;6.63;3.00;;;;;;;-1.48;100.00;96066.84;5035515;28;20074;-62
2024/01/15 08:26:30;;;;;;;10.85;2.83;;;;;;;-1.35;100.00;96066.00;5050456;28;20170;-62
2024/01/15 08:28:57;;;;;;;5.93;2.63;;;;;;;-1.26;100.00;96072.72;5035147;28;20116;-62
2024/01/15 08:31:24;;;;;;;7.35;2.97;;;;;;;-1.40;100.00;96066.63;5039819;28;20049;-57
2024/01/15 08:33:51;;;;;;;6.43;2.95;;;;;;;-1.36;100.00;96064.38;5034565;28;20214;-56
2024/01/15 08:36:18;;;;;;;7.00;3.42;;;;;;;-1.41;100.00;96059.69;5034336;28;20041;-58
2024/01/15 08:38:45;;;;;;;7.57;3.45;;;;;;;-1.40;100.00;96065.81;5035783;28;20501;-63
2024/01/15 08:41:11;;;;;;;5.97;2.58;;;;;;;-1.18;100.00;96061.88;5031818;28;20033;-63
2024/01/15 08:43:38;;;;;;;6.72;3.30;;;;;;;-1.05;100.00;96063.69;5038356;28;20051;-61
2024/01/15 08:46:04;;;;;;;8.48;3.40;;;;;;;-1.10;100.00;96060.00;5036529;28;20049;-62
2024/01/15 08:48:31;;;;;;;6.05;2.83;;;;;;;-1.19;100.00;96060.25;5044930;28;20041;-62
2024/01/15 08:50:58;;;;;;;10.02;3.40;;;;;;;-1.16;100.00;96060.84;5026837;28;20115;-62
2024/01/15 08:53:24;;;;;;;6.57;3.20;;;;;;;-1.20;100.00;96065.75;5040120;28;20048;-63
2024/01/15 08:55:51;;;;;;;7.53;2.67;;;;;;;-0.95;100.00;96057.09;5034785;28;20583;-63
2024/01/15 08:58:17;;;;;;;6.55;2.47;;;;;;;-1.01;100.00;96064.06;5030836;28;20033;-63
2024/01/15 09:00:44;;;;;;;9.43;3.33;;;;;;;-1.15;100.00;96059.84;5043897;28;20123;-63
2024/01/15 09:03:11;;;;;;;6.15;2.83;;;;;;;-1.09;100.00;96058.97;5033164;28;20049;-63
2024/01/15 09:05:38;;;;;;;5.53;2.20;;;;;;;-1.01;100.00;96064.06;5031965;28;20041;-62
2024/01/15 09:08:05;;;;;;;7.40;3.05;;;;;;;-1.00;100.00;96055.06;5029766;28;20104;-63
2024/01/15 09:10:32;;;;;;;6.63;2.80;;;;;;;-0.92;100.00;96043.38;5036315;28;20404;-62
2024/01/15 09:13:00;;;;;;;6.93;2.70;;;;;;;-1.01;100.00;96053.44;5034395;28;20045;-62
2024/01/15 09:15:27;;;;;;;8.90;3.65;;;;;;;-1.02;100.00;96043.00;5034044;28;20053;-62
2024/01/15 09:17:54;;;;;;;8.93;2.58;;;;;;;-0.99;100.00;96032.75;5032476;28;20041;-62
2024/01/15 09:20:21;;;;;;;6.38;2.90;;;;;;;-0.93;100.00;96031.94;5028257;28;20037;-62
2024/01/15 09:22:47;;;;;;;7.97;2.50;;;;;;;-0.78;100.00;96028.16;5032659;28;20034;-63
2024/01/15 09:25:14;;;;;;;6.88;3.05;;;;;;;-0.80;100.00;96030.25;5036970;28;20048;-62
2024/01/15 09:27:40;;;;;;;7.25;2.60;;;;;;;-0.77;100.00;96037.81;5034500;28;20479;-62
2024/01/15 09:30:08;;;;;;;8.75;4.03;;;;;;;-0.61;100.00;96041.78;5037078;28;20055;-62
2024/01/15 09:32:35;;;;;;;5.53;2.35;;;;;;;-0.75;100.00;96042.88;5033836;28;20052;-63
2024/01/15 09:35:01;;;;;;;4.93;2.53;;;;;;;-0.63;99.82;96048.34;5038266;28;20041;-62
2024/01/15 09:37:28;;;;;;;6.72;2.28;;;;;;;-0.59;100.00;96042.38;5045456;28;20078;-60
2024/01/15 09:40:16;;;;;;;6.60;3.15;;;;;;;-0.61;99.84;96044.44;5034537;28;20077;-61
2024/01/15 09:42:44;;;;;;;7.60;3.20;;;;;;;-0.57;100.00;96042.16;5046007;28;20036;-62
2024/01/15 09:45:11;;;;;;;9.57;3.65;;;;;;;-0.82;100.00;96045.56;5043373;28;20099;-62
2024/01/15 09:47:38;;;;;;;7.43;2.72;;;;;;;-0.74;100.00;96047.19;5041173;28;20048;-62
2024/01/15 09:50:11;;;;;;;7.13;2.75;;;;;;;-0.68;100.00;96041.84;5044330;28;20049;-62
2024/01/15 09:52:38;;;;;;;7.15;3.38;;;;;;;-0.64;100.00;96036.91;5039880;28;20774;-63
2024/01/15 09:55:06;;;;;;;6.03;2.13;;;;;;;-0.66;100.00;96037.09;5031363;28;20100;-62
2024/01/15 09:57:32;;;;;;;5.70;2.55;;;;;;;-0.67;100.00;96037.31;5035034;28;20068;-63
2024/01/15 10:00:04;;;;;;;5.57;2.35;;;;;;;-0.59;100.00;96036.25;5026419;28;20034;-62
2024/01/15 10:02:31;;;;;;;6.97;2.25;;;;;;;-0.49;100.00;96035.78;5036048;28;20750;-63
2024/01/15 10:04:57;;;;;;;3.95;2.30;;;;;;;-0.33;100.00;96032.59;5028861;28;20041;-63
2024/01/15 10:07:25;;;;;;;6.03;2.30;;;;;;;-0.26;99.97;96035.22;5037319;28;20102;-61
2024/01/15 10:09:52;;;;;;;9.15;3.33;;;;;;;-0.44;100.00;96035.97;5033973;28;20041;-63
2024/01/15 10:12:23;;;;;;;13.93;5.15;;;;;;;-0.58;100.00;96024.59;5037799;28;20040;-65
2024/01/15 10:14:50;;;;;;;15.03;6.77;;;;;;;-0.76;100.00;96026.13;5041180;28;20052;-61
2024/01/15 10:17:17;;;;;;;6.35;2.90;;;;;;;-0.70;100.00;96027.94;5036485;28;20126;-60
2024/01/15 10:19:46;;;;;;;9.98;3.28;;;;;;;-0.65;100.00;96027.28;5043259;28;20045;-61
2024/01/15 10:22:17;;;;;;;8.18;2.67;;;;;;;-0.71;100.00;96018.31;5026092;28;20045;-61
2024/01/15 10:24:45;;;;;;;7.72;3.28;;;;;;;-0.60;100.00;96023.97;5039625;28;20103;-61
2024/01/15 10:27:12;;;;;;;5.95;2.95;;;;;;;-0.72;100.00;96013.22;5035855;28;20041;-61
2024/01/15 10:29:41;;;;;;;6.10;3.30;;;;;;;-0.72;100.00;96008.72;5035136;28;20042;-60
2024/01/15 10:32:08;;;;;;;6.47;2.92;;;;;;;-0.80;100.00;95999.16;5041418;28;20049;-61
2024/01/15 10:34:39;;;;;;;6.93;3.20;;;;;;;-0.71;100.00;96001.56;5033954;28;20653;-61
2024/01/15 10:37:08;;;;;;;6.15;3.33;;;;;;;-0.87;100.00;96002.88;5034073;28;20057;-61
2024/01/15 10:39:35;;;;;;;7.78;3.83;;;;;;;-0.97;100.00;95990.03;5036906;28;20413;-61
2024/01/15 10:42:01;;;;;;;8.82;3.78;;;;;;;-0.99;100.00;95994.78;5030004;28;20095;-60
2024/01/15 10:44:29;;;;;;;7.15;4.03;;;;;;;-0.97;100.00;95984.72;5043663;28;20047;-61
2024/01/15 10:46:56;;;;;;;7.25;2.83;;;;;;;-0.83;100.00;95985.47;5035675;28;20693;-61
2024/01/15 10:49:25;;;;;;;6.63;3.15;;;;;;;-0.79;100.00;95989.34;5038102;28;20051;-59
2024/01/15 10:51:58;;;;;;;7.97;3.50;;;;;;;-0.75;100.00;95985.22;5040206;28;20052;-60
2024/01/15 10:54:26;;;;;;;4.30;2.75;;;;;;;-0.83;100.00;95988.13;5032835;28;20133;-61
2024/01/15 10:56:55;;;;;;;5.35;2.83;;;;;;;-0.72;100.00;95983.97;5042223;28;20056;-61
2024/01/15 10:59:22;;;;;;;5.38;2.60;;;;;;;-0.77;100.00;95986.47;5034225;28;20536;-60
2024/01/15 11:01:53;;;;;;;4.57;2.70;;;;;;;-0.85;100.00;95977.72;5028601;28;20129;-60
2024/01/15 11:04:21;;;;;;;5.25;2.60;;;;;;;-0.76;100.00;95978.28;5029867;28;20671;-61
2024/01/15 11:06:53;;;;;;;6.45;2.92;;;;;;;-0.87;100.00;95979.78;5031870;28;20045;-61
2024/01/15 11:09:20;;;;;;;5.35;2.70;;;;;;;-1.09;100.00;95974.78;5040791;28;20037;-61
2024/01/15 11:11:48;;;;;;;10.32;3.08;;;;;;;-1.11;100.00;95968.88;5033919;28;20045;-61
2024/01/15 11:14:44;;;;;;;4.78;2.50;;;;;;;-1.23;100.00;95970.56;5036057;28;20047;-61
2024/01/15 11:17:12;;;;;;;6.20;2.80;;;;;;;-1.21;100.00;95964.00;5029459;28;20084;-60
2024/01/15 11:19:52;;;;;;;6.47;2.50;;;;;;;-1.35;100.00;95955.31;5037261;28;20563;-61
2024/01/15 11:22:29;;;;;;;6.68;3.17;;;;;;;-1.22;100.00;95953.63;5040213;28;20041;-61